Airfield :
LOGIN :

Register | Disclaimer

   EN    FR    IT 

 










Legend :    VFR   Marginal VFR   IFR   Intensive IFR   Very Intensive IFR
Visi :
Ceiling :
>= 8 km
>= 3000ft
5 to 8 km
1000 to 3000 ft
1500m to 5 km
500 to 1000 ft
800 to 1500m
200 to 500 ft
< 800m
< 200 ft
Symbols :   Thunderstorms  Fog  Heavy snow  Heavy precipitations  Wind > 20 kt
SIGMETs :     Misc.  Thunderstorms  Icing  Turbulence  Mountain Waves  Volcanic Ashes






- Airport Elevation : 3 ft
- IATA code : LWR


EHLW - Leuuwarden Air Base

CURRENT METAR :
  • 061601Z AUTO 21015KT 160V230 2400 -RA OVC002 08/07 Q0999 AMB

EXPIRED METARs :
  • 061555Z AUTO 21015KT 170V230 2600 DZRA OVC002 08/07 Q0999 AMB
  • 061539Z AUTO 21015KT 170V230 2900 DZRA BKN003 OVC004 08/07 Q0999 YLO
  • 061525Z AUTO 21016KT 170V230 2200 +DZRA BKN003 OVC004 08/07 Q0999 YLO
  • 061510Z AUTO 21015KT 170V230 2400 -RA BKN003 OVC004 08/07 Q0999 YLO
  • 061455Z AUTO 21016KT 170V240 2400 R23/2600D +DZRA OVC003 07/07 Q0999 YLO 21017G28KT 2500 DZRA BKN003
  • 061446Z AUTO 21016KT 170V230 2300 R23/2600D +DZRA OVC003 07/07 Q0999 YLO 21017G28KT 2500 DZRA BKN003
  • 061439Z AUTO 21016KT 170V230 2700 R23/P3000D BR OVC003 07/07 Q0999 YLO 21017G28KT 2500 DZRA BKN003
  • 061426Z AUTO 21016KT 3800 -RA OVC003 07/07 Q1000 YLO 21017G28KT 3800 DZRA BKN004
  • 061425Z AUTO 21016KT 170V230 4200 -RA BKN003 OVC004 07/07 Q1000 RERA REDZ YLO 21017G28KT 4500 DZRA SCT004 BKN005
  • 061409Z AUTO 21017G28KT 4400 -RA BKN003 BKN004 FEW015CB 07/07 Q1000 YLO 21017G28KT 4500 DZRA SCT004 BKN005
  • 061403Z AUTO 21018KT 170V230 2400 R23/2700D -SHUP BKN003 BKN004 FEW015CB 07/07 Q1000 YLO 21017G28KT 4500 DZRA SCT004 BKN005
  • 061342Z AUTO 21018KT 170V240 4900 DZRA BKN004 BKN005 FEW015CB 07/06 Q1000 YLO 21017G28KT 4500 DZRA SCT004 BKN005
  • 061335Z AUTO 21017KT 4400 -RADZ BKN004 BKN005 FEW015CB 07/06 Q1000 YLO 21017G28KT 4500 DZRA SCT004 BKN005
  • 061320Z AUTO 21017KT 170V230 5000 -DZRA OVC004 07/06 Q1001 YLO 21017G28KT 4500 DZRA SCT004 BKN005

TAF TAF EHLW
Valid from the 06 at 14:00 until the 07 at 02:00 UTC


061319Z 0614/0702 21015KT 6000 BKN005 OVC007
TEMPO 0614/0619 22017G27KT 2500 DZRA BKN003 OVC005
BECMG 0619/0621 SCT012 BKN015
TEMPO 0620/0702 28017G32KT 4000 SHRA SCT010 SCT018CB
PROB40
TEMPO 0621/0701 3000 TSRA SHRA SCT008 SCT015CB



MET'MAP, your aeronautical weather chart ! - Copyright ORBIFLY December 2007 - Disclaimer

ORBIFLY MET'MAP TEAM :

Programming & Development : Alexandra Zaïnal
Concept & original design : Baudouin d'Aumeries
Assistance for programming : Marc-Olivier Méhu
Technical & hardware support : Manuel Goepfert

Contact : metmap@orbifly.com




SOURCES & CREDITS :

   NOAA